Time;durP1;ratioP1;P1;durP2;ratioP2;P2;SDS_P1;SDS_P2;PMS_P1;PMS_P2;Temp;Humidity;BMP_temperature;BMP_pressure;BME280_temperature;BME280_humidity;BME280_pressure;Samples;Min_cycle;Max_cycle;Signal;HPM_P1;HPM_P2
2024/04/18 00:01:11;;;;;;;2.03;0.57;;;;;;;20.68;45.40;97250.28;6494153;21;20000;-74
2024/04/18 00:03:37;;;;;;;1.45;0.50;;;;;;;20.67;45.50;97268.03;6534832;21;20281;-74
2024/04/18 00:06:02;;;;;;;1.55;0.40;;;;;;;20.71;45.46;97286.97;6492811;21;19993;-73
2024/04/18 00:08:28;;;;;;;1.42;0.40;;;;;;;20.69;45.52;97275.78;6535002;21;20003;-74
2024/04/18 00:10:57;;;;;;;2.47;0.50;;;;;;;20.72;45.64;97278.78;6449304;21;19988;-74
2024/04/18 00:13:23;;;;;;;1.23;0.40;;;;;;;20.71;45.42;97263.91;6493669;21;20016;-73
2024/04/18 00:15:51;;;;;;;1.02;0.40;;;;;;;20.73;45.41;97269.81;6534761;21;20066;-74
2024/04/18 00:18:17;;;;;;;1.20;0.30;;;;;;;20.73;45.30;97280.41;6494176;21;20385;-74
2024/04/18 00:20:43;;;;;;;0.82;0.38;;;;;;;20.76;45.26;97284.47;6491766;21;20070;-74
2024/04/18 00:23:08;;;;;;;1.92;0.40;;;;;;;20.75;45.35;97257.16;6491792;21;20008;-74
2024/04/18 00:25:34;;;;;;;2.30;0.30;;;;;;;20.75;45.30;97240.44;6489894;21;19999;-74
2024/04/18 00:28:00;;;;;;;1.05;0.40;;;;;;;20.78;45.22;97248.75;6535320;21;20391;-74
2024/04/18 00:30:25;;;;;;;0.98;0.20;;;;;;;20.75;45.15;97256.34;6534739;21;20000;-74
2024/04/18 00:32:50;;;;;;;0.60;0.20;;;;;;;20.74;45.19;97266.13;6534323;21;20389;-74
2024/04/18 00:35:16;;;;;;;1.13;0.30;;;;;;;20.76;45.15;97263.25;6535193;21;19988;-74
2024/04/18 00:37:41;;;;;;;1.58;0.30;;;;;;;20.77;45.05;97284.25;6534712;21;20376;-74
2024/04/18 00:40:07;;;;;;;0.95;0.40;;;;;;;20.75;44.99;97281.00;6534716;21;19988;-74
2024/04/18 00:42:33;;;;;;;1.65;0.47;;;;;;;20.75;45.09;97264.28;6579954;21;20405;-74
2024/04/18 00:44:58;;;;;;;1.30;0.40;;;;;;;20.74;45.05;97255.50;6491690;21;20004;-74
2024/04/18 00:47:24;;;;;;;2.40;0.40;;;;;;;20.76;44.97;97245.50;6449773;21;19984;-74
2024/04/18 00:49:50;;;;;;;1.15;0.40;;;;;;;20.76;45.25;97226.13;6482759;22;20017;-75
2024/04/18 00:52:19;;;;;;;3.13;0.30;;;;;;;20.73;45.12;97219.44;6525962;22;20443;-75
2024/04/18 00:54:45;;;;;;;2.28;0.20;;;;;;;20.71;45.17;97194.97;6484494;22;20000;-74
2024/04/18 00:57:10;;;;;;;1.75;0.40;;;;;;;20.69;45.25;97204.19;6483921;22;19989;-74
2024/04/18 00:59:39;;;;;;;1.92;0.40;;;;;;;20.65;45.13;97195.84;6483288;22;19995;-74
2024/04/18 01:02:04;;;;;;;2.10;0.30;;;;;;;20.65;45.22;97195.03;6440709;22;19997;-74
2024/04/18 01:04:30;;;;;;;1.42;0.38;;;;;;;20.67;45.46;97188.50;6440887;22;20292;-74
2024/04/18 01:06:56;;;;;;;1.08;0.30;;;;;;;20.67;45.12;97159.34;6482561;22;19989;-73
2024/04/18 01:09:21;;;;;;;2.50;0.30;;;;;;;20.61;45.10;97163.63;6441441;22;19993;-73
2024/04/18 01:11:47;;;;;;;1.30;0.38;;;;;;;20.55;45.36;97212.22;6483626;22;20001;-74
2024/04/18 01:14:12;;;;;;;1.30;0.30;;;;;;;20.50;45.59;97274.88;6483781;22;20363;-75
2024/04/18 01:16:38;;;;;;;1.27;0.30;;;;;;;20.41;45.65;97300.81;6482653;22;19996;-73
2024/04/18 01:19:04;;;;;;;1.00;0.22;;;;;;;20.33;45.78;97267.44;6441120;22;20004;-73
2024/04/18 01:21:29;;;;;;;0.57;0.20;;;;;;;20.26;45.96;97221.66;6483994;22;20001;-73
2024/04/18 01:23:55;;;;;;;1.60;0.43;;;;;;;20.27;45.78;97188.81;6484977;22;19993;-73
2024/04/18 01:26:20;;;;;;;2.03;0.38;;;;;;;20.23;46.21;97145.25;6485608;22;19993;-74
2024/04/18 01:28:46;;;;;;;2.63;0.30;;;;;;;20.21;46.15;97129.56;6485807;22;20066;-74
2024/04/18 01:31:11;;;;;;;1.45;0.30;;;;;;;20.18;46.16;97132.66;6486281;22;20068;-74
2024/04/18 01:33:37;;;;;;;0.82;0.20;;;;;;;20.18;46.27;97137.97;6485750;22;19993;-74
2024/04/18 01:36:02;;;;;;;1.00;0.40;;;;;;;20.19;46.20;97163.44;6443610;22;19989;-73
2024/04/18 01:38:28;;;;;;;2.22;0.30;;;;;;;20.17;46.32;97193.81;6531032;22;19995;-74
2024/04/18 01:40:53;;;;;;;0.82;0.30;;;;;;;20.19;46.33;97221.72;6483800;22;20064;-74
2024/04/18 01:43:19;;;;;;;0.93;0.28;;;;;;;20.18;46.28;97241.28;6444093;22;19993;-74
2024/04/18 01:45:44;;;;;;;0.95;0.30;;;;;;;20.20;46.25;97249.81;6486124;22;20019;-73
2024/04/18 01:48:10;;;;;;;0.98;0.30;;;;;;;20.21;46.27;97205.59;6485150;22;19989;-74
2024/04/18 01:50:35;;;;;;;0.60;0.20;;;;;;;20.17;45.91;97152.22;6485645;22;20059;-74
2024/04/18 01:53:02;;;;;;;0.60;0.20;;;;;;;20.21;46.29;97153.41;6443676;22;20036;-74
2024/04/18 01:55:27;;;;;;;0.95;0.30;;;;;;;20.18;46.22;97169.75;6485683;22;20410;-74
2024/04/18 01:57:53;;;;;;;1.42;0.40;;;;;;;20.19;45.93;97189.94;6443519;22;19989;-74
2024/04/18 02:00:18;;;;;;;1.63;0.47;;;;;;;20.20;45.93;97196.81;6527174;22;20296;-76
2024/04/18 02:02:44;;;;;;;0.85;0.10;;;;;;;20.19;46.09;97211.13;6442946;22;19999;-74
2024/04/18 02:05:09;;;;;;;0.95;0.45;;;;;;;20.21;45.94;97229.44;6485593;22;20001;-74
2024/04/18 02:07:35;;;;;;;1.17;0.40;;;;;;;20.20;46.06;97235.75;6528326;22;20044;-74
2024/04/18 02:10:00;;;;;;;1.45;0.35;;;;;;;20.20;45.92;97246.38;6483784;22;20297;-73
2024/04/18 02:12:26;;;;;;;2.20;0.30;;;;;;;20.16;45.71;97251.28;6484927;22;19993;-73
2024/04/18 02:14:51;;;;;;;1.23;0.25;;;;;;;20.14;45.33;97266.56;6485745;22;19993;-73
2024/04/18 02:17:16;;;;;;;1.35;0.10;;;;;;;20.18;45.41;97256.38;6485546;22;20308;-74
2024/04/18 02:19:42;;;;;;;0.50;0.20;;;;;;;20.16;45.43;97227.44;6528186;22;20020;-74
2024/04/18 02:22:07;;;;;;;0.90;0.22;;;;;;;20.16;45.45;97235.38;6528061;22;19993;-74
2024/04/18 02:24:38;;;;;;;0.77;0.20;;;;;;;20.13;45.25;97222.56;6485196;22;20368;-74
2024/04/18 02:27:03;;;;;;;0.35;0.15;;;;;;;20.16;45.53;97229.25;6485829;22;20306;-74
2024/04/18 02:29:29;;;;;;;0.63;0.20;;;;;;;20.12;45.40;97243.97;6440158;22;20005;-72
2024/04/18 02:31:54;;;;;;;0.20;0.10;;;;;;;20.14;45.22;97247.22;6442835;22;20065;-72
2024/04/18 02:34:20;;;;;;;0.43;0.10;;;;;;;20.13;45.46;97242.94;6483918;22;20003;-73
2024/04/18 02:36:45;;;;;;;0.77;0.30;;;;;;;20.14;45.31;97245.38;6484351;22;20417;-73
2024/04/18 02:39:11;;;;;;;1.67;0.40;;;;;;;20.14;45.18;97249.88;6482886;22;19993;-73
2024/04/18 02:41:36;;;;;;;1.45;0.20;;;;;;;20.13;45.11;97259.66;6483416;22;20066;-72
2024/04/18 02:44:02;;;;;;;0.95;0.20;;;;;;;20.13;45.00;97267.59;6484366;22;19993;-72
2024/04/18 02:46:28;;;;;;;0.50;0.22;;;;;;;20.12;45.05;97259.88;6482951;22;20000;-73
2024/04/18 02:48:53;;;;;;;0.13;0.08;;;;;;;20.12;45.06;97236.03;6442135;22;19989;-72
2024/04/18 02:51:19;;;;;;;0.38;0.10;;;;;;;20.09;45.10;97231.97;6484154;22;20007;-75
2024/04/18 02:53:44;;;;;;;1.00;0.17;;;;;;;20.05;45.01;97257.25;6524890;22;19993;-74
2024/04/18 02:56:10;;;;;;;0.68;0.10;;;;;;;20.06;44.97;97264.97;6442159;22;20053;-74
2024/04/18 02:58:35;;;;;;;2.08;0.10;;;;;;;20.01;44.78;97279.91;6480338;22;19999;-73
2024/04/18 03:01:04;;;;;;;0.80;0.13;;;;;;;19.98;44.79;97301.50;6442008;22;20063;-73
2024/04/18 03:03:29;;;;;;;1.15;0.10;;;;;;;19.94;44.85;97273.81;6484427;22;19999;-73
2024/04/18 03:06:02;;;;;;;0.50;0.20;;;;;;;19.92;44.81;97276.69;6484425;22;19989;-73
2024/04/18 03:08:28;;;;;;;0.50;0.20;;;;;;;19.93;44.58;97274.88;6485221;22;19997;-73
2024/04/18 03:10:53;;;;;;;0.32;0.32;;;;;;;19.87;44.54;97244.75;6529479;22;20023;-74
2024/04/18 03:13:19;;;;;;;0.57;0.25;;;;;;;19.88;44.58;97260.41;6485071;22;20007;-75
2024/04/18 03:15:45;;;;;;;4.85;0.80;;;;;;;19.93;47.83;97285.47;6441401;22;19997;-73
2024/04/18 03:18:11;;;;;;;6.57;1.13;;;;;;;20.12;50.40;97295.13;6438998;22;20004;-73
2024/04/18 03:20:38;;;;;;;8.88;1.40;;;;;;;20.25;50.52;97281.75;6485011;22;20033;-72
2024/04/18 03:23:03;;;;;;;10.50;1.15;;;;;;;20.38;50.34;97282.69;6484767;22;19992;-71
2024/04/18 03:25:29;;;;;;;7.03;1.17;;;;;;;20.66;49.64;97276.19;6484480;22;19993;-70
2024/04/18 03:27:54;;;;;;;7.82;0.95;;;;;;;20.88;48.63;97281.91;6484016;22;20288;-70
2024/04/18 03:30:20;;;;;;;25.08;1.40;;;;;;;21.07;48.43;97277.44;6526621;22;20061;-69
2024/04/18 03:32:45;;;;;;;13.70;1.52;;;;;;;21.21;47.98;97296.69;6484541;22;20277;-73
2024/04/18 03:35:11;;;;;;;7.57;1.30;;;;;;;21.21;47.68;97300.16;6441861;22;19993;-72
2024/04/18 03:37:36;;;;;;;6.45;0.82;;;;;;;21.19;47.52;97301.38;6484658;22;20294;-73
2024/04/18 03:40:02;;;;;;;7.95;0.82;;;;;;;21.12;46.75;97304.91;6441697;22;20060;-71
2024/04/18 03:42:27;;;;;;;4.95;0.60;;;;;;;21.08;46.42;97308.22;6484274;22;19993;-69
2024/04/18 03:44:53;;;;;;;5.13;0.80;;;;;;;20.87;44.66;97299.66;6483189;22;20005;-69
2024/04/18 03:47:19;;;;;;;11.73;3.50;;;;;;;20.53;43.04;97304.41;6526808;22;20317;-70
2024/04/18 03:49:45;;;;;;;9.13;5.13;;;;;;;20.04;42.85;97300.66;6475774;22;20001;-70
2024/04/18 03:52:10;;;;;;;12.30;5.97;;;;;;;19.63;42.87;97301.88;6351142;22;20406;-73
2024/04/18 03:54:36;;;;;;;8.57;5.35;;;;;;;19.22;43.01;97292.44;6429249;22;19993;-78
2024/04/18 03:57:01;;;;;;;11.30;5.20;;;;;;;18.94;43.52;97299.63;6432649;22;20403;-73
2024/04/18 03:59:27;;;;;;;9.32;5.30;;;;;;;18.71;43.41;97300.00;6431678;22;19994;-72
2024/04/18 04:01:52;;;;;;;7.90;5.30;;;;;;;18.42;43.53;97304.69;6390088;22;20009;-73
2024/04/18 04:04:17;;;;;;;6.53;4.18;;;;;;;18.23;44.08;97308.94;6431753;22;20342;-74
2024/04/18 04:06:43;;;;;;;7.78;4.25;;;;;;;18.21;43.93;97300.38;6430481;22;19998;-72
2024/04/18 04:09:08;;;;;;;4.93;3.15;;;;;;;19.19;41.95;97300.78;6432711;22;20287;-73
2024/04/18 04:11:35;;;;;;;3.80;2.40;;;;;;;20.43;39.57;97306.75;6391796;22;19990;-73
2024/04/18 04:14:01;;;;;;;5.00;1.80;;;;;;;21.18;37.81;97297.13;6391384;22;19993;-72
2024/04/18 04:16:27;;;;;;;3.10;1.75;;;;;;;22.02;36.43;97292.06;6474232;22;19997;-72
2024/04/18 04:18:54;;;;;;;2.80;1.42;;;;;;;22.40;35.01;97280.28;6432845;22;19994;-72
2024/04/18 04:21:20;;;;;;;2.13;1.30;;;;;;;21.60;36.15;97284.00;6433923;22;20354;-72
2024/04/18 04:23:45;;;;;;;7.60;1.25;;;;;;;21.19;36.97;97291.59;6433657;22;20002;-72
2024/04/18 04:26:11;;;;;;;1.95;0.93;;;;;;;20.80;37.32;97288.31;6432408;22;19990;-72
2024/04/18 04:28:36;;;;;;;1.77;0.90;;;;;;;20.41;37.85;97283.09;6433034;22;19993;-72
2024/04/18 04:31:02;;;;;;;1.40;0.88;;;;;;;20.25;38.53;97299.50;6433251;22;20288;-74
2024/04/18 04:33:28;;;;;;;1.92;0.80;;;;;;;21.56;36.52;97296.13;6391492;22;20002;-72
2024/04/18 04:35:54;;;;;;;2.40;0.80;;;;;;;22.54;35.06;97299.50;6432023;22;20002;-73
2024/04/18 04:38:20;;;;;;;3.42;0.52;;;;;;;24.54;31.54;97308.91;6350761;22;20013;-72
2024/04/18 04:40:45;;;;;;;0.85;0.50;;;;;;;25.88;29.90;97309.94;6390255;22;20400;-73
2024/04/18 04:43:11;;;;;;;0.75;0.50;;;;;;;27.21;26.82;97313.75;6390491;22;19990;-72
2024/04/18 04:45:36;;;;;;;0.88;0.50;;;;;;;28.54;25.43;97320.66;6390756;22;20278;-72
2024/04/18 04:48:02;;;;;;;0.95;0.50;;;;;;;29.75;24.11;97319.91;6433289;22;20037;-73
2024/04/18 04:50:28;;;;;;;0.80;0.50;;;;;;;30.78;22.22;97324.66;6484258;22;20000;-73
2024/04/18 04:52:54;;;;;;;1.15;0.50;;;;;;;31.81;21.56;97339.00;6484259;22;20008;-80
2024/04/18 04:55:19;;;;;;;2.63;0.68;;;;;;;32.51;21.52;97345.59;6441607;22;19993;-78
2024/04/18 04:57:45;;;;;;;1.13;0.57;;;;;;;31.41;22.64;97349.13;6527132;22;20000;-78
2024/04/18 05:00:11;;;;;;;1.55;0.65;;;;;;;32.86;20.72;97356.94;6444012;22;19989;-78
2024/04/18 05:02:36;;;;;;;1.00;0.50;;;;;;;33.82;19.99;97358.97;6527113;22;19989;-78
2024/04/18 05:05:02;;;;;;;0.40;0.25;;;;;;;34.63;19.03;97362.88;6487158;22;19989;-78
2024/04/18 05:07:27;;;;;;;0.93;0.50;;;;;;;35.27;18.41;97365.38;6486304;22;19993;-77
2024/04/18 05:09:53;;;;;;;0.55;0.40;;;;;;;36.05;17.87;97372.19;6486259;22;19993;-78
2024/04/18 05:12:18;;;;;;;0.75;0.25;;;;;;;35.85;18.01;97368.97;6528582;22;20063;-78
2024/04/18 05:14:44;;;;;;;1.50;0.40;;;;;;;36.50;17.63;97374.66;6442403;22;19989;-78
2024/04/18 05:17:09;;;;;;;0.45;0.30;;;;;;;37.20;16.72;97368.31;6486585;22;20063;-79
2024/04/18 05:19:35;;;;;;;2.58;0.50;;;;;;;37.73;16.66;97371.63;6486574;22;19989;-79
2024/04/18 05:22:00;;;;;;;0.70;0.50;;;;;;;36.23;16.94;97368.38;6484291;22;20313;-79
2024/04/18 05:24:26;;;;;;;1.40;0.82;;;;;;;36.08;16.60;97371.56;6483998;22;20059;-78
2024/04/18 05:26:51;;;;;;;2.08;1.00;;;;;;;36.77;15.99;97378.16;6486697;22;20309;-78
2024/04/18 05:32:02;;;;;;;1.98;0.80;;;;;;;37.66;14.75;97394.69;6494101;22;20008;-79
2024/04/18 05:34:30;;;;;;;1.90;1.00;;;;;;;37.88;14.80;97378.47;6487112;22;20003;-79
2024/04/18 05:36:55;;;;;;;4.05;0.88;;;;;;;37.75;14.00;97383.81;6487153;22;20120;-78
2024/04/18 05:39:21;;;;;;;7.65;5.85;;;;;;;38.16;13.95;97385.03;6485636;22;20463;-79
2024/04/18 05:41:46;;;;;;;7.63;3.60;;;;;;;36.67;15.51;97381.97;6528557;22;19989;-79
2024/04/18 05:44:12;;;;;;;7.47;4.07;;;;;;;34.80;17.12;97378.50;6484495;22;20301;-84
2024/04/18 05:46:37;;;;;;;7.20;4.20;;;;;;;33.40;18.13;97381.69;6529077;22;19989;-86
2024/04/18 05:49:04;;;;;;;5.60;3.00;;;;;;;32.11;19.43;97383.69;6446819;22;19989;-85
2024/04/18 05:51:29;;;;;;;11.63;3.00;;;;;;;31.06;20.78;97395.03;6493338;22;19993;-88
2024/04/18 05:53:55;;;;;;;4.78;2.47;;;;;;;30.19;21.22;97412.53;6488008;22;19993;-83
2024/04/18 05:56:20;;;;;;;7.43;2.00;;;;;;;29.39;22.16;97408.72;6442673;22;19989;-78
2024/04/18 05:58:46;;;;;;;6.78;2.22;;;;;;;28.67;23.13;97402.56;6439933;22;20361;-79
2024/04/18 06:01:11;;;;;;;6.95;2.15;;;;;;;28.31;26.01;97411.31;6489083;22;19993;-88
2024/04/18 06:03:37;;;;;;;8.73;2.25;;;;;;;28.37;26.39;97412.16;6449435;22;20063;-85
2024/04/18 06:06:02;;;;;;;7.55;2.03;;;;;;;29.81;25.14;97416.72;6453105;22;19993;-86
2024/04/18 06:11:03;;;;;;;16.23;2.13;;;;;;;31.56;22.76;97408.31;6588837;21;20025;-88
2024/04/18 06:13:30;;;;;;;4.10;1.67;;;;;;;31.21;22.85;97411.03;6555959;21;19996;-91
2024/04/18 06:15:56;;;;;;;9.75;1.70;;;;;;;30.78;23.32;97404.66;6557717;21;19999;-88
2024/04/18 06:18:22;;;;;;;3.80;1.67;;;;;;;30.46;23.52;97422.13;6498375;22;20386;-87
2024/04/18 06:20:50;;;;;;;11.52;4.90;;;;;;;29.91;23.19;97411.31;6463437;22;19999;-88
2024/04/18 06:23:16;;;;;;;8.95;6.65;;;;;;;29.25;23.93;97402.31;6428484;22;19989;-90
2024/04/18 06:25:42;;;;;;;9.32;6.45;;;;;;;28.66;24.71;97407.13;6464480;22;20001;-86
2024/04/18 06:28:11;;;;;;;7.63;4.45;;;;;;;28.07;25.47;97410.16;6425354;22;20033;-88
2024/04/18 06:30:37;;;;;;;6.15;3.70;;;;;;;27.49;26.06;97421.66;6427150;22;20004;-90
2024/04/18 06:33:03;;;;;;;6.70;2.97;;;;;;;26.89;26.81;97427.09;6426954;22;19996;-87
2024/04/18 06:35:29;;;;;;;5.30;2.30;;;;;;;26.48;27.33;97440.06;6466391;22;19993;-89
2024/04/18 06:37:54;;;;;;;4.40;2.92;;;;;;;26.04;27.89;97455.34;6464459;21;19993;-90
2024/04/18 06:40:23;;;;;;;6.38;3.35;;;;;;;25.58;28.81;97448.28;6509135;22;20416;-89
2024/04/18 06:42:52;;;;;;;8.52;3.40;;;;;;;25.13;29.50;97445.69;6515434;21;19997;-89
2024/04/18 06:45:19;;;;;;;9.10;4.00;;;;;;;24.92;29.34;97456.84;6527624;21;20003;-88
2024/04/18 06:47:44;;;;;;;7.10;3.33;;;;;;;24.80;31.10;97460.63;6562264;21;20446;-90
2024/04/18 06:50:10;;;;;;;6.50;3.40;;;;;;;24.61;30.84;97450.16;6548647;21;20005;-90
2024/04/18 06:52:36;;;;;;;7.40;3.78;;;;;;;24.45;31.44;97462.38;6419131;22;19989;-87
2024/04/18 06:55:02;;;;;;;8.48;3.95;;;;;;;24.33;31.52;97472.25;6530258;22;20004;-83
2024/04/18 06:57:27;;;;;;;8.80;4.35;;;;;;;24.19;31.26;97477.88;6486669;22;19997;-82
2024/04/18 06:59:53;;;;;;;8.80;4.88;;;;;;;23.95;31.74;97478.97;6446586;22;20000;-84
2024/04/18 07:02:19;;;;;;;11.23;4.68;;;;;;;23.84;31.99;97475.25;6491378;22;20281;-84
2024/04/18 07:04:45;;;;;;;10.60;5.22;;;;;;;23.70;32.07;97481.84;6448604;22;20394;-82
2024/04/18 07:07:11;;;;;;;7.30;4.03;;;;;;;23.68;33.48;97487.41;6492230;22;20386;-85
2024/04/18 07:09:37;;;;;;;14.10;3.83;;;;;;;23.66;33.97;97479.63;6502862;22;20004;-83
2024/04/18 07:12:03;;;;;;;9.73;3.30;;;;;;;23.78;35.87;97487.66;6495681;22;20036;-87
2024/04/18 07:14:29;;;;;;;15.13;3.35;;;;;;;23.92;34.68;97492.75;6536662;22;19989;-83
2024/04/18 07:16:54;;;;;;;32.67;4.30;;;;;;;24.23;36.04;97499.53;6440848;22;20288;-79
2024/04/18 07:19:20;;;;;;;12.75;3.42;;;;;;;24.48;34.93;97498.41;6529457;22;20001;-79
2024/04/18 07:21:45;;;;;;;8.95;4.55;;;;;;;24.69;34.67;97500.47;6400642;22;19993;-80
2024/04/18 07:24:10;;;;;;;14.93;6.20;;;;;;;24.84;36.98;97515.97;6442878;22;19989;-80
2024/04/18 07:26:36;;;;;;;17.73;5.38;;;;;;;24.99;34.35;97517.28;6443055;22;19999;-81
2024/04/18 07:29:03;;;;;;;9.75;6.00;;;;;;;25.09;33.60;97520.13;6442711;22;20004;-79
2024/04/18 07:31:29;;;;;;;16.17;8.82;;;;;;;25.12;35.41;97518.84;6483041;22;20274;-81
2024/04/18 07:33:55;;;;;;;17.20;8.00;;;;;;;25.15;34.58;97508.47;6485164;22;20025;-80
2024/04/18 07:36:21;;;;;;;11.40;7.28;;;;;;;25.21;33.84;97510.19;6442374;22;19989;-81
2024/04/18 07:38:48;;;;;;;13.85;7.70;;;;;;;25.49;33.31;97508.50;6443216;22;19993;-74
2024/04/18 07:41:14;;;;;;;13.60;8.25;;;;;;;25.73;32.94;97516.34;6444044;22;20063;-80
2024/04/18 07:43:39;;;;;;;10.25;7.25;;;;;;;26.24;31.66;97522.44;6443001;22;19992;-78
2024/04/18 07:46:05;;;;;;;10.15;6.50;;;;;;;26.24;32.22;97521.63;6442038;22;20000;-79
2024/04/18 07:48:30;;;;;;;12.18;5.97;;;;;;;26.27;31.74;97518.47;6452713;21;19994;-86
2024/04/18 07:50:56;;;;;;;8.80;5.97;;;;;;;26.44;31.56;97521.06;6504583;21;20000;-87
2024/04/18 07:53:22;;;;;;;12.18;5.75;;;;;;;26.68;30.92;97518.97;6503996;21;19988;-88
2024/04/18 07:55:47;;;;;;;8.68;3.80;;;;;;;26.98;29.96;97512.31;6460996;21;20082;-84
2024/04/18 07:58:13;;;;;;;5.45;3.63;;;;;;;27.78;27.97;97512.44;6462325;21;20401;-88
2024/04/18 08:00:38;;;;;;;7.60;3.33;;;;;;;28.00;27.36;97503.50;6499907;21;20058;-85
2024/04/18 08:03:04;;;;;;;5.93;3.40;;;;;;;28.06;28.07;97510.50;6497856;21;19998;-89
2024/04/18 08:05:29;;;;;;;6.80;2.90;;;;;;;28.02;26.80;97512.88;6539803;21;19992;-84
2024/04/18 08:07:55;;;;;;;9.18;2.60;;;;;;;27.98;26.48;97520.63;6453339;21;19989;-79
2024/04/18 08:10:20;;;;;;;7.82;2.92;;;;;;;27.90;26.90;97526.47;6451976;21;19999;-82
2024/04/18 08:12:46;;;;;;;9.75;2.55;;;;;;;27.82;26.98;97524.28;6451567;21;20003;-82
2024/04/18 08:15:11;;;;;;;5.13;2.35;;;;;;;27.69;26.85;97530.06;6452687;21;19988;-82
2024/04/18 08:17:37;;;;;;;3.75;1.90;;;;;;;27.52;26.87;97536.38;6493441;21;19988;-81
2024/04/18 08:20:04;;;;;;;2.78;1.90;;;;;;;27.40;27.06;97546.47;6496299;21;19993;-84
2024/04/18 08:22:30;;;;;;;3.65;2.17;;;;;;;27.46;26.55;97539.28;6456889;21;20002;-89
2024/04/18 08:24:56;;;;;;;4.45;2.53;;;;;;;27.51;26.24;97540.13;6504268;21;19992;-89
2024/04/18 08:27:21;;;;;;;5.68;3.92;;;;;;;27.47;26.04;97533.69;6542899;21;20002;-89
2024/04/18 08:29:47;;;;;;;8.35;6.63;;;;;;;27.34;26.05;97534.91;6458990;21;19989;-90
2024/04/18 08:32:14;;;;;;;14.00;11.15;;;;;;;27.26;26.28;97546.03;6545164;21;20002;-88
2024/04/18 08:34:39;;;;;;;18.13;12.67;;;;;;;27.13;25.91;97549.16;6504099;21;19995;-87
2024/04/18 08:37:05;;;;;;;12.20;9.35;;;;;;;26.97;25.92;97545.50;6545934;21;19988;-89
2024/04/18 08:39:30;;;;;;;10.45;7.03;;;;;;;26.84;26.32;97557.44;6462655;21;20035;-89
2024/04/18 08:41:59;;;;;;;12.77;8.30;;;;;;;26.76;25.79;97553.31;6465140;21;20000;-90
2024/04/18 08:44:25;;;;;;;11.98;8.45;;;;;;;26.83;25.75;97566.50;6547519;21;20000;-89
2024/04/18 08:46:50;;;;;;;10.45;7.05;;;;;;;26.78;25.55;97561.91;6460135;21;20352;-91
2024/04/18 08:49:16;;;;;;;7.82;5.28;;;;;;;26.69;25.57;97558.06;6456484;22;20067;-91
2024/04/18 08:51:41;;;;;;;8.82;4.30;;;;;;;26.66;25.77;97559.38;6495430;22;20036;-91
2024/04/18 08:54:07;;;;;;;5.93;3.50;;;;;;;26.66;25.71;97562.06;6453970;22;19993;-90
2024/04/18 08:56:33;;;;;;;8.65;5.45;;;;;;;26.64;25.65;97560.66;6492056;22;19997;-89
2024/04/18 08:58:59;;;;;;;8.13;4.75;;;;;;;26.58;25.93;97561.63;6452039;22;20397;-93
2024/04/18 09:01:25;;;;;;;5.78;3.65;;;;;;;26.49;26.08;97559.41;6450946;22;20008;-90
2024/04/18 09:03:59;;;;;;;4.93;3.30;;;;;;;26.46;25.76;97562.56;6453415;22;20004;-89
2024/04/18 09:06:25;;;;;;;4.30;2.80;;;;;;;26.43;25.50;97560.41;6546565;22;19997;-91
2024/04/18 09:08:53;;;;;;;5.75;2.95;;;;;;;26.34;25.91;97573.38;6496866;22;20012;-91
2024/04/18 09:11:19;;;;;;;4.18;2.38;;;;;;;26.23;26.22;97568.16;6452095;22;20004;-90
2024/04/18 09:13:45;;;;;;;3.65;1.83;;;;;;;26.13;26.50;97572.31;6497344;22;19997;-89
2024/04/18 09:16:10;;;;;;;3.45;2.20;;;;;;;26.14;26.24;97559.72;6452696;22;19993;-87
2024/04/18 09:18:38;;;;;;;6.28;1.80;;;;;;;26.32;26.31;97562.13;6453153;22;19993;-89
2024/04/18 09:21:12;;;;;;;2.90;1.80;;;;;;;26.27;26.27;97569.28;6495593;22;20033;-91
2024/04/18 09:23:39;;;;;;;3.92;1.45;;;;;;;26.16;26.30;97568.34;6496986;22;20007;-91
2024/04/18 09:26:05;;;;;;;2.13;1.13;;;;;;;26.06;26.59;97566.34;6455443;22;20008;-89
2024/04/18 09:28:30;;;;;;;2.03;1.10;;;;;;;26.00;27.33;97567.31;6501434;22;19993;-88
2024/04/18 09:30:56;;;;;;;2.15;1.13;;;;;;;25.98;27.53;97570.22;6449313;22;19993;-88
2024/04/18 09:33:23;;;;;;;1.73;0.90;;;;;;;25.92;27.98;97573.84;6457947;22;19993;-92
2024/04/18 09:35:54;;;;;;;2.47;0.90;;;;;;;25.76;28.85;97574.66;6503083;22;19989;-91
2024/04/18 09:38:19;;;;;;;1.70;0.90;;;;;;;25.67;29.05;97584.97;6503533;22;19989;-91
2024/04/18 09:41:00;;;;;;;2.15;1.00;;;;;;;25.51;29.76;97586.56;6457438;22;19993;-92
2024/04/18 09:43:33;;;;;;;1.50;0.80;;;;;;;25.33;30.05;97584.13;6496313;22;20071;-90
2024/04/18 09:46:06;;;;;;;1.80;1.15;;;;;;;25.18;30.51;97587.31;6501879;22;19997;-90
2024/04/18 09:48:31;;;;;;;2.90;0.88;;;;;;;25.05;30.60;97596.41;6459937;22;20402;-89
2024/04/18 09:50:57;;;;;;;1.52;0.65;;;;;;;24.85;30.92;97588.81;6453091;22;20006;-89
2024/04/18 09:53:22;;;;;;;1.40;0.80;;;;;;;24.68;31.10;97583.41;6452579;22;20040;-87
2024/04/18 09:55:49;;;;;;;1.95;0.52;;;;;;;24.53;31.25;97592.69;6492211;22;19993;-89
2024/04/18 09:58:17;;;;;;;1.45;0.70;;;;;;;24.33;31.33;97582.41;6493181;22;19993;-89
2024/04/18 10:00:42;;;;;;;1.80;0.80;;;;;;;24.24;31.54;97588.31;6448978;22;20009;-86
2024/04/18 10:03:09;;;;;;;1.40;0.75;;;;;;;24.17;31.56;97599.13;6491024;22;20000;-88
2024/04/18 10:05:35;;;;;;;1.90;0.60;;;;;;;24.15;31.43;97598.56;6491299;22;20015;-89
2024/04/18 10:08:00;;;;;;;2.03;0.50;;;;;;;24.21;31.47;97597.63;6489240;22;19997;-89
2024/04/18 10:10:26;;;;;;;3.25;0.80;;;;;;;24.38;31.04;97589.69;6451721;22;20005;-89
2024/04/18 10:12:52;;;;;;;2.28;0.80;;;;;;;24.52;30.35;97591.06;6494697;22;20008;-91
2024/04/18 10:15:22;;;;;;;1.88;0.60;;;;;;;24.93;29.88;97594.56;6451137;22;20000;-86
2024/04/18 10:17:47;;;;;;;3.58;0.68;;;;;;;25.17;29.44;97586.47;6494398;22;19997;-90
2024/04/18 10:20:14;;;;;;;0.82;0.60;;;;;;;25.44;28.66;97592.06;6493503;22;20008;-90
2024/04/18 10:22:39;;;;;;;3.70;0.60;;;;;;;25.70;28.45;97587.16;6458079;21;19997;-89
2024/04/18 10:25:15;;;;;;;1.20;0.68;;;;;;;25.98;27.97;97599.66;6503290;21;19992;-89
2024/04/18 10:27:42;;;;;;;1.30;0.47;;;;;;;26.18;27.79;97592.97;6465241;21;20062;-90
2024/04/18 10:30:12;;;;;;;0.98;0.55;;;;;;;26.31;28.15;97599.81;6547631;21;19993;-89
2024/04/18 10:32:38;;;;;;;2.80;0.57;;;;;;;26.40;27.84;97595.66;6505298;21;19999;-89
2024/04/18 10:35:03;;;;;;;1.23;0.63;;;;;;;26.47;27.53;97592.81;6460670;21;19996;-91
2024/04/18 10:37:29;;;;;;;1.45;0.65;;;;;;;26.61;27.06;97596.72;6507414;21;20062;-91
2024/04/18 10:39:57;;;;;;;1.58;0.52;;;;;;;26.82;27.50;97591.66;6466420;21;20003;-90
2024/04/18 10:42:23;;;;;;;1.40;0.57;;;;;;;27.11;27.02;97584.22;6502337;21;20004;-91
2024/04/18 10:44:49;;;;;;;1.40;0.57;;;;;;;27.37;26.66;97581.81;6549700;21;19996;-89
2024/04/18 10:47:15;;;;;;;1.15;0.57;;;;;;;27.38;26.55;97584.25;6462681;21;20039;-90
2024/04/18 10:49:40;;;;;;;1.98;0.60;;;;;;;27.42;26.02;97589.88;6492637;21;20027;-90
2024/04/18 10:52:10;;;;;;;1.35;0.50;;;;;;;27.30;26.12;97591.91;6553033;21;19988;-88
2024/04/18 10:54:36;;;;;;;1.10;0.50;;;;;;;27.14;25.78;97591.75;6564455;21;20027;-89
2024/04/18 10:57:02;;;;;;;1.55;0.70;;;;;;;26.94;26.44;97591.53;6518600;21;20006;-89
2024/04/18 10:59:27;;;;;;;0.75;0.40;;;;;;;26.71;26.45;97593.44;6643796;21;19987;-88
2024/04/18 11:02:04;;;;;;;1.02;0.60;;;;;;;26.40;27.18;97606.38;6601375;21;19998;-91
2024/04/18 11:04:30;;;;;;;2.35;0.70;;;;;;;26.23;27.67;97595.69;6604405;21;20002;-90
2024/04/18 11:06:56;;;;;;;3.45;0.80;;;;;;;26.05;27.82;97591.44;6555102;21;19992;-88
2024/04/18 11:09:21;;;;;;;3.38;0.90;;;;;;;26.05;27.67;97588.78;6511867;21;19998;-90
2024/04/18 11:11:47;;;;;;;1.27;0.60;;;;;;;25.96;27.59;97583.00;6511241;21;19987;-91
2024/04/18 11:14:13;;;;;;;1.40;0.70;;;;;;;25.77;27.54;97586.97;6512761;21;19988;-90
2024/04/18 11:16:38;;;;;;;1.27;0.65;;;;;;;25.58;27.58;97578.41;6510352;21;19998;-89
2024/04/18 11:19:06;;;;;;;1.38;0.60;;;;;;;25.34;27.96;97573.19;6553761;21;19991;-88
2024/04/18 11:21:32;;;;;;;2.72;0.60;;;;;;;25.31;27.99;97583.56;6601779;21;19995;-89
2024/04/18 11:23:57;;;;;;;1.33;0.70;;;;;;;25.27;28.08;97588.53;6511848;21;20302;-92
2024/04/18 11:26:24;;;;;;;2.53;0.60;;;;;;;25.24;27.96;97587.16;6555502;21;19991;-88
2024/04/18 11:28:50;;;;;;;5.20;0.60;;;;;;;25.24;27.91;97581.00;6598152;21;20002;-88
2024/04/18 11:31:16;;;;;;;5.20;0.47;;;;;;;25.25;27.71;97583.44;6517723;21;20016;-90